createdAt,value
2023-04-29T00:00:07.780Z,19.73
2023-04-29T00:02:34.866Z,17.48
2023-04-29T00:05:05.185Z,17.27
2023-04-29T00:07:36.372Z,17.88
2023-04-29T00:10:03.207Z,17.27
2023-04-29T00:12:31.834Z,17.40
2023-04-29T00:14:58.502Z,18.58
2023-04-29T00:17:25.163Z,20.55
2023-04-29T00:19:52.080Z,22.48
2023-04-29T00:22:18.999Z,21.85
2023-04-29T00:24:45.615Z,20.98
2023-04-29T00:27:12.232Z,19.98
2023-04-29T00:29:38.827Z,21.30
2023-04-29T00:32:05.615Z,19.52
2023-04-29T00:34:32.264Z,19.00
2023-04-29T00:36:58.879Z,18.27
2023-04-29T00:39:25.695Z,16.95
2023-04-29T00:41:52.923Z,18.27
2023-04-29T00:44:19.532Z,19.40
2023-04-29T00:46:46.201Z,18.95
2023-04-29T00:49:12.836Z,17.77
2023-04-29T00:51:39.478Z,17.90
2023-04-29T00:54:06.137Z,16.35
2023-04-29T00:56:33.192Z,15.48
2023-04-29T00:58:59.840Z,15.27
2023-04-29T01:01:26.489Z,16.25
2023-04-29T01:03:53.269Z,15.70
2023-04-29T01:06:23.260Z,14.27
2023-04-29T01:08:59.375Z,15.18
2023-04-29T01:11:27.592Z,15.32
2023-04-29T01:14:03.414Z,14.98
2023-04-29T01:16:37.569Z,15.18
2023-04-29T01:21:50.572Z,13.82
2023-04-29T01:24:17.194Z,18.27
2023-04-29T01:26:52.605Z,17.83
2023-04-29T01:29:52.120Z,16.95
2023-04-29T01:32:23.132Z,15.90
2023-04-29T01:35:01.490Z,11.82
2023-04-29T01:37:31.341Z,11.20
2023-04-29T01:40:12.629Z,11.18
2023-04-29T01:42:40.289Z,10.93
2023-04-29T01:45:08.254Z,11.52
2023-04-29T01:47:35.079Z,11.98
2023-04-29T01:50:02.606Z,12.82
2023-04-29T01:52:29.215Z,12.93
2023-04-29T01:54:56.409Z,13.90
2023-04-29T01:57:23.080Z,13.88
2023-04-29T01:59:49.832Z,15.02
2023-04-29T02:02:21.173Z,15.65
2023-04-29T02:04:48.742Z,16.92
2023-04-29T02:07:15.803Z,16.98
2023-04-29T02:09:42.447Z,15.88
2023-04-29T02:12:09.048Z,18.08
2023-04-29T02:14:37.762Z,17.63
2023-04-29T02:17:04.722Z,17.63
2023-04-29T02:19:31.357Z,17.95
2023-04-29T02:21:57.964Z,18.48
2023-04-29T02:24:24.718Z,17.70
2023-04-29T02:26:51.338Z,18.58
2023-04-29T02:29:17.990Z,17.55
2023-04-29T02:31:44.742Z,18.02
2023-04-29T02:34:11.426Z,17.95
2023-04-29T02:36:38.039Z,17.50
2023-04-29T02:39:05.229Z,16.35
2023-04-29T02:41:31.864Z,18.10
2023-04-29T02:43:58.675Z,17.35
2023-04-29T02:46:25.451Z,17.50
2023-04-29T02:48:52.098Z,17.92
2023-04-29T02:51:18.704Z,18.05
2023-04-29T02:53:45.291Z,17.20
2023-04-29T02:56:11.910Z,18.23
2023-04-29T02:58:38.550Z,17.13
2023-04-29T03:01:05.207Z,18.17
2023-04-29T03:03:32.044Z,19.10
2023-04-29T03:05:58.755Z,17.33
2023-04-29T03:08:25.367Z,16.85
2023-04-29T03:10:52.125Z,17.80
2023-04-29T03:13:18.731Z,16.10
2023-04-29T03:15:45.648Z,17.63
2023-04-29T03:18:12.298Z,17.83
2023-04-29T03:20:38.977Z,19.95
2023-04-29T03:23:05.580Z,19.75
2023-04-29T03:25:32.221Z,18.17
2023-04-29T03:27:58.813Z,19.10
2023-04-29T03:30:25.441Z,19.13
2023-04-29T03:32:52.076Z,17.45
2023-04-29T03:35:18.749Z,18.05
2023-04-29T03:37:45.406Z,19.92
2023-04-29T03:40:12.902Z,18.92
2023-04-29T03:42:39.585Z,18.95
2023-04-29T03:45:06.917Z,18.05
2023-04-29T03:47:33.632Z,16.50
2023-04-29T03:50:00.295Z,17.65
2023-04-29T03:52:26.933Z,15.27
2023-04-29T03:54:53.521Z,15.00
2023-04-29T03:57:20.158Z,14.77
2023-04-29T03:59:50.280Z,14.52
2023-04-29T04:02:17.254Z,14.43
2023-04-29T04:04:44.226Z,15.70
2023-04-29T04:07:11.634Z,16.35
2023-04-29T04:09:38.521Z,16.92
2023-04-29T04:12:06.159Z,16.42
2023-04-29T04:14:32.776Z,15.35
2023-04-29T04:16:59.471Z,15.15
2023-04-29T04:19:27.056Z,15.05
2023-04-29T04:21:53.966Z,16.13
2023-04-29T04:24:20.644Z,16.52
2023-04-29T04:26:47.265Z,16.27
2023-04-29T04:29:14.168Z,16.10
2023-04-29T04:31:40.828Z,16.15
2023-04-29T04:34:07.475Z,15.40
2023-04-29T04:36:34.164Z,15.35
2023-04-29T04:39:00.762Z,15.40
2023-04-29T04:41:27.404Z,14.65
2023-04-29T04:43:54.013Z,13.40
2023-04-29T04:46:20.680Z,13.55
2023-04-29T04:48:47.514Z,12.93
2023-04-29T04:51:14.343Z,11.93
2023-04-29T04:53:41.160Z,12.38
2023-04-29T04:56:08.471Z,11.95
2023-04-29T04:58:35.161Z,12.30
2023-04-29T05:01:02.066Z,12.10
2023-04-29T05:03:28.982Z,12.73
2023-04-29T05:05:56.643Z,13.55
2023-04-29T05:08:23.254Z,14.52
2023-04-29T05:10:49.986Z,14.18
2023-04-29T05:13:16.598Z,13.40
2023-04-29T05:15:43.221Z,14.65
2023-04-29T05:18:09.939Z,15.13
2023-04-29T05:20:36.756Z,15.35
2023-04-29T05:23:03.870Z,15.90
2023-04-29T05:25:30.713Z,14.85
2023-04-29T05:27:57.354Z,16.77
2023-04-29T05:30:23.986Z,16.58
2023-04-29T05:32:50.680Z,18.08
2023-04-29T05:35:17.489Z,15.98
2023-04-29T05:37:44.258Z,16.85
2023-04-29T05:40:11.109Z,17.92
2023-04-29T05:42:38.011Z,18.73
2023-04-29T05:45:04.992Z,16.80
2023-04-29T05:47:31.653Z,20.00
2023-04-29T05:49:58.325Z,18.48
2023-04-29T05:52:24.930Z,19.27
2023-04-29T05:54:51.621Z,18.65
2023-04-29T05:57:18.234Z,18.33
2023-04-29T05:59:45.015Z,18.60
2023-04-29T06:02:12.405Z,17.85
2023-04-29T06:04:41.526Z,17.38
2023-04-29T06:07:09.246Z,17.35
2023-04-29T06:09:36.554Z,17.48
2023-04-29T06:12:03.513Z,16.70
2023-04-29T06:14:30.332Z,16.98
2023-04-29T06:16:57.027Z,16.20
2023-04-29T06:19:25.083Z,16.80
2023-04-29T06:21:51.879Z,16.38
2023-04-29T06:24:18.489Z,16.88
2023-04-29T06:26:45.152Z,16.33
2023-04-29T06:29:12.274Z,15.60
2023-04-29T06:31:38.939Z,15.90
2023-04-29T06:34:05.902Z,16.30
2023-04-29T06:36:33.037Z,17.13
2023-04-29T06:38:59.668Z,17.02
2023-04-29T06:41:27.262Z,16.33
2023-04-29T06:43:53.926Z,15.70
2023-04-29T06:46:20.585Z,15.85
2023-04-29T06:48:47.543Z,15.60
2023-04-29T06:51:14.163Z,16.25
2023-04-29T06:53:40.763Z,15.75
2023-04-29T06:56:07.722Z,14.25
2023-04-29T06:58:34.346Z,14.43
2023-04-29T07:01:01.143Z,14.73
2023-04-29T07:03:27.865Z,14.15
2023-04-29T07:05:54.661Z,12.73
2023-04-29T07:08:21.299Z,12.27
2023-04-29T07:10:55.562Z,11.30
2023-04-29T07:15:48.856Z,10.23
2023-04-29T07:18:15.534Z,10.15
2023-04-29T07:20:43.431Z,10.55
2023-04-29T07:23:10.291Z,9.30
2023-04-29T07:25:36.894Z,9.90
2023-04-29T07:28:03.509Z,8.63
2023-04-29T07:30:30.334Z,9.15
2023-04-29T07:32:57.289Z,9.57
2023-04-29T07:35:24.241Z,9.60
2023-04-29T07:37:50.893Z,9.80
2023-04-29T07:40:17.752Z,8.90
2023-04-29T07:42:44.414Z,8.98
2023-04-29T07:45:11.673Z,8.63
2023-04-29T07:47:38.315Z,9.05
2023-04-29T07:50:05.360Z,8.43
2023-04-29T07:52:32.000Z,8.93
2023-04-29T07:54:58.618Z,8.43
2023-04-29T07:57:25.319Z,9.05
2023-04-29T07:59:55.089Z,9.40
2023-04-29T08:02:21.835Z,8.57
2023-04-29T08:04:49.042Z,9.35
2023-04-29T08:07:15.976Z,9.30
2023-04-29T08:09:42.570Z,8.82
2023-04-29T08:12:09.425Z,9.80
2023-04-29T08:14:36.235Z,9.52
2023-04-29T08:17:02.916Z,10.02
2023-04-29T08:19:29.705Z,9.98
2023-04-29T08:21:56.327Z,10.13
2023-04-29T08:24:23.281Z,9.65
2023-04-29T08:26:49.885Z,10.23
2023-04-29T08:29:16.492Z,10.65
2023-04-29T08:31:43.151Z,11.93
2023-04-29T08:34:09.800Z,10.05
2023-04-29T08:36:38.605Z,11.18
2023-04-29T08:39:05.261Z,11.05
2023-04-29T08:41:33.186Z,11.55
2023-04-29T08:44:00.794Z,12.80
2023-04-29T08:46:27.467Z,13.25
2023-04-29T08:48:54.711Z,12.48
2023-04-29T08:51:21.315Z,14.13
2023-04-29T08:53:48.307Z,12.95
2023-04-29T08:56:20.517Z,15.20
2023-04-29T08:58:47.643Z,14.13
2023-04-29T09:01:14.354Z,14.40
2023-04-29T09:04:10.316Z,14.60
2023-04-29T09:06:36.996Z,15.65
2023-04-29T09:09:03.821Z,15.70
2023-04-29T09:11:30.453Z,16.80
2023-04-29T09:13:59.814Z,18.05
2023-04-29T09:16:26.508Z,16.55
2023-04-29T09:18:54.643Z,17.63
2023-04-29T09:21:23.038Z,17.67
2023-04-29T09:23:57.133Z,18.60
2023-04-29T09:26:24.248Z,19.30
2023-04-29T09:29:11.597Z,18.02
2023-04-29T09:31:39.219Z,19.27
2023-04-29T09:34:06.194Z,20.33
2023-04-29T09:36:45.946Z,20.35
2023-04-29T09:39:20.500Z,21.33
2023-04-29T09:41:53.199Z,22.98
2023-04-29T09:44:23.818Z,22.15
2023-04-29T09:47:04.346Z,22.75
2023-04-29T09:49:35.803Z,22.52
2023-04-29T09:52:04.039Z,23.17
2023-04-29T09:54:31.865Z,21.23
2023-04-29T09:56:59.606Z,21.48
2023-04-29T09:59:26.671Z,23.33
2023-04-29T10:01:54.997Z,22.65
2023-04-29T10:04:22.547Z,22.67
2023-04-29T10:06:50.232Z,21.10
2023-04-29T10:09:17.448Z,22.83
2023-04-29T10:11:50.714Z,20.92
2023-04-29T10:14:24.866Z,22.00
2023-04-29T10:17:11.442Z,22.52
2023-04-29T10:19:47.978Z,21.70
2023-04-29T10:22:19.502Z,22.33
2023-04-29T10:24:46.096Z,21.42
2023-04-29T10:27:13.105Z,21.67
2023-04-29T10:29:39.984Z,21.77
2023-04-29T10:32:07.661Z,21.25
2023-04-29T10:34:35.020Z,21.55
2023-04-29T10:37:01.637Z,20.88
2023-04-29T10:39:42.854Z,21.98
2023-04-29T10:42:18.859Z,20.40
2023-04-29T10:45:23.293Z,21.63
2023-04-29T10:48:08.874Z,21.80
2023-04-29T10:50:48.209Z,20.67
2023-04-29T10:53:15.421Z,19.80
2023-04-29T10:55:42.118Z,19.42
2023-04-29T10:58:46.212Z,19.55
2023-04-29T11:01:16.914Z,18.67
2023-04-29T11:03:54.884Z,19.55
2023-04-29T11:06:29.385Z,17.60
2023-04-29T11:09:09.016Z,19.15
2023-04-29T11:12:00.681Z,17.83
2023-04-29T11:14:31.532Z,19.13
2023-04-29T11:16:59.589Z,20.63
2023-04-29T11:19:33.763Z,18.73
2023-04-29T11:22:12.532Z,17.98
2023-04-29T11:24:57.172Z,17.02
2023-04-29T11:27:25.765Z,16.40
2023-04-29T11:29:58.117Z,17.35
2023-04-29T11:32:26.013Z,16.77
2023-04-29T11:34:53.549Z,17.50
2023-04-29T11:37:21.798Z,16.42
2023-04-29T11:39:49.105Z,16.02
2023-04-29T11:42:20.449Z,14.70
2023-04-29T11:44:47.118Z,14.25
2023-04-29T11:47:13.941Z,14.93
2023-04-29T11:49:40.627Z,14.50
2023-04-29T11:52:08.045Z,14.45
2023-04-29T11:54:34.676Z,13.10
2023-04-29T11:57:04.669Z,12.25
2023-04-29T11:59:32.738Z,12.50
2023-04-29T12:02:00.647Z,12.18
2023-04-29T12:04:27.729Z,13.13
2023-04-29T12:06:57.267Z,12.43
2023-04-29T12:09:23.909Z,13.23
2023-04-29T12:11:50.949Z,13.50
2023-04-29T12:14:17.567Z,13.43
2023-04-29T12:16:44.252Z,13.57
2023-04-29T12:19:11.912Z,14.23
2023-04-29T12:21:47.929Z,12.57
2023-04-29T12:24:14.529Z,13.40
2023-04-29T12:26:41.503Z,13.75
2023-04-29T12:29:10.662Z,12.98
2023-04-29T12:31:37.404Z,12.65
2023-04-29T12:34:06.958Z,12.63
2023-04-29T12:36:35.024Z,13.93
2023-04-29T12:39:01.681Z,13.63
2023-04-29T12:41:38.515Z,12.43
2023-04-29T12:44:05.850Z,12.07
2023-04-29T12:46:42.068Z,12.57
2023-04-29T12:49:08.826Z,11.27
2023-04-29T12:51:36.638Z,11.50
2023-04-29T12:54:03.960Z,11.88
2023-04-29T12:56:31.770Z,12.40
2023-04-29T12:59:06.332Z,12.25
2023-04-29T13:01:33.266Z,10.60
2023-04-29T13:03:59.995Z,10.85
2023-04-29T13:06:27.307Z,11.73
2023-04-29T13:08:54.511Z,10.38
2023-04-29T13:11:21.130Z,12.82
2023-04-29T13:13:47.972Z,11.50
2023-04-29T13:16:14.685Z,11.48
2023-04-29T13:18:47.771Z,12.25
2023-04-29T13:21:25.493Z,13.18
2023-04-29T13:23:52.223Z,11.88
2023-04-29T13:26:18.836Z,12.00
2023-04-29T13:28:45.805Z,10.65
2023-04-29T13:31:12.407Z,11.57
2023-04-29T13:33:40.168Z,10.85
2023-04-29T13:36:07.646Z,10.77
2023-04-29T13:38:34.331Z,10.43
2023-04-29T13:41:01.215Z,10.68
2023-04-29T13:43:35.943Z,11.93
2023-04-29T13:46:06.812Z,10.98
2023-04-29T13:49:11.128Z,11.10
2023-04-29T13:51:48.100Z,12.27
2023-04-29T14:04:17.719Z,11.55
2023-04-29T14:06:44.491Z,11.52
2023-04-29T14:09:11.551Z,12.07
2023-04-29T14:11:38.244Z,11.80
2023-04-29T14:14:04.884Z,13.00
2023-04-29T14:16:32.386Z,11.52
2023-04-29T14:19:00.727Z,12.18
2023-04-29T14:21:29.676Z,13.25
2023-04-29T14:23:57.443Z,12.25
2023-04-29T14:26:28.936Z,12.43
2023-04-29T14:28:59.453Z,12.50
2023-04-29T14:31:30.517Z,12.18
2023-04-29T14:33:57.504Z,12.48
2023-04-29T14:36:24.359Z,12.75
2023-04-29T14:38:51.722Z,11.57
2023-04-29T14:41:18.377Z,12.15
2023-04-29T14:43:45.021Z,12.75
2023-04-29T14:46:11.668Z,12.32
2023-04-29T14:48:38.418Z,12.80
2023-04-29T14:51:06.110Z,11.52
2023-04-29T14:53:32.733Z,12.15
2023-04-29T14:55:59.334Z,12.60
2023-04-29T14:58:26.147Z,11.50
2023-04-29T15:00:52.755Z,11.18
2023-04-29T15:03:22.580Z,11.02
2023-04-29T15:05:50.894Z,10.95
2023-04-29T15:08:18.075Z,11.13
2023-04-29T15:10:49.110Z,11.32
2023-04-29T15:13:15.834Z,11.30
2023-04-29T15:15:42.480Z,11.32
2023-04-29T15:18:09.363Z,11.95
2023-04-29T15:20:36.884Z,10.90
2023-04-29T15:23:04.183Z,10.93
2023-04-29T15:25:31.257Z,12.65
2023-04-29T15:27:59.076Z,12.35
2023-04-29T15:30:28.926Z,12.60
2023-04-29T15:32:55.701Z,12.90
2023-04-29T15:35:22.449Z,12.93
2023-04-29T15:37:49.465Z,12.07
2023-04-29T15:40:17.373Z,13.38
2023-04-29T15:42:43.995Z,12.82
2023-04-29T15:45:11.184Z,12.82
2023-04-29T15:47:37.911Z,12.65
2023-04-29T15:50:04.854Z,14.13
2023-04-29T15:52:31.496Z,13.40
2023-04-29T15:54:58.503Z,14.52
2023-04-29T15:57:26.268Z,13.23
2023-04-29T15:59:53.379Z,14.18
2023-04-29T16:02:21.078Z,13.73
2023-04-29T16:04:47.954Z,13.75
2023-04-29T16:07:14.624Z,13.52
2023-04-29T16:09:41.272Z,14.27
2023-04-29T16:12:08.492Z,13.38
2023-04-29T16:14:35.143Z,14.25
2023-04-29T16:17:02.027Z,14.52
2023-04-29T16:19:28.750Z,13.80
2023-04-29T16:21:55.520Z,12.55
2023-04-29T16:24:22.237Z,12.35
2023-04-29T16:26:49.366Z,11.98
2023-04-29T16:29:16.009Z,12.82
2023-04-29T16:31:43.664Z,13.27
2023-04-29T16:34:10.610Z,12.82
2023-04-29T16:36:37.551Z,12.35
2023-04-29T16:39:04.713Z,12.80
2023-04-29T16:41:32.256Z,12.23
2023-04-29T16:43:58.928Z,12.57
2023-04-29T16:46:25.952Z,13.57
2023-04-29T16:48:56.755Z,12.85
2023-04-29T16:51:25.389Z,12.95
2023-04-29T16:53:55.024Z,12.98
2023-04-29T16:56:22.626Z,13.57
2023-04-29T16:58:49.324Z,14.55
2023-04-29T17:01:16.131Z,14.20
2023-04-29T17:03:42.902Z,14.90
2023-04-29T17:06:09.548Z,14.00
2023-04-29T17:08:36.230Z,14.07
2023-04-29T17:11:02.978Z,14.70
2023-04-29T17:13:29.744Z,14.50
2023-04-29T17:15:56.883Z,15.98
2023-04-29T17:18:23.617Z,15.15
2023-04-29T17:20:51.069Z,15.63
2023-04-29T17:23:18.282Z,14.25
2023-04-29T17:25:45.093Z,14.50
2023-04-29T17:28:11.778Z,14.48
2023-04-29T17:30:38.396Z,13.48
2023-04-29T17:33:08.818Z,13.85
2023-04-29T17:35:35.513Z,14.93
2023-04-29T17:38:02.184Z,15.10
2023-04-29T17:40:28.964Z,14.82
2023-04-29T17:42:55.635Z,13.43
2023-04-29T17:45:22.253Z,14.15
2023-04-29T17:47:48.899Z,15.00
2023-04-29T17:50:15.625Z,15.07
2023-04-29T17:52:42.777Z,14.50
2023-04-29T17:55:10.033Z,15.45
2023-04-29T17:57:38.087Z,14.73
2023-04-29T18:00:07.303Z,15.23
2023-04-29T18:02:34.625Z,15.13
2023-04-29T18:05:03.030Z,16.38
2023-04-29T18:07:29.638Z,15.38
2023-04-29T18:09:56.546Z,16.50
2023-04-29T18:12:24.101Z,16.33
2023-04-29T18:14:51.720Z,15.68
2023-04-29T18:17:18.440Z,16.77
2023-04-29T18:19:47.873Z,17.40
2023-04-29T18:22:14.663Z,16.33
2023-04-29T18:24:41.300Z,18.30
2023-04-29T18:27:07.918Z,16.33
2023-04-29T18:29:34.523Z,17.35
2023-04-29T18:32:01.786Z,16.00
2023-04-29T18:34:28.489Z,15.68
2023-04-29T18:36:55.092Z,16.58
2023-04-29T18:39:21.759Z,16.13
2023-04-29T18:41:48.379Z,14.52
2023-04-29T18:44:14.999Z,15.98
2023-04-29T18:46:41.689Z,15.18
2023-04-29T18:49:11.624Z,16.20
2023-04-29T18:51:38.822Z,16.08
2023-04-29T18:54:05.644Z,16.35
2023-04-29T18:56:32.312Z,15.88
2023-04-29T18:58:58.916Z,16.23
2023-04-29T19:01:25.793Z,16.17
2023-04-29T19:03:52.443Z,20.52
2023-04-29T19:06:19.127Z,22.25
2023-04-29T19:08:45.906Z,19.30
2023-04-29T19:11:12.493Z,16.77
2023-04-29T19:13:39.124Z,19.63
2023-04-29T19:16:06.060Z,17.85
2023-04-29T19:18:32.714Z,18.38
2023-04-29T19:20:59.638Z,17.73
2023-04-29T19:23:26.244Z,20.08
2023-04-29T19:25:53.060Z,18.45
2023-04-29T19:28:19.711Z,47.17
2023-04-29T19:30:46.444Z,34.15
2023-04-29T19:33:13.124Z,46.47
2023-04-29T19:35:39.735Z,41.60
2023-04-29T19:38:06.332Z,32.63
2023-04-29T19:40:33.030Z,28.55
2023-04-29T19:42:59.646Z,27.15
2023-04-29T19:45:26.434Z,23.77
2023-04-29T19:47:54.778Z,19.95
2023-04-29T19:50:22.703Z,18.75
2023-04-29T19:52:49.590Z,20.38
2023-04-29T19:55:16.764Z,20.25
2023-04-29T19:57:43.476Z,20.35
2023-04-29T20:00:13.433Z,31.42
2023-04-29T20:02:41.398Z,27.42
2023-04-29T20:05:10.566Z,22.60
2023-04-29T20:07:37.693Z,20.58
2023-04-29T20:10:07.856Z,21.33
2023-04-29T20:12:35.597Z,20.42
2023-04-29T20:15:02.813Z,22.77
2023-04-29T20:17:29.432Z,21.85
2023-04-29T20:19:56.398Z,22.42
2023-04-29T20:22:23.175Z,25.23
2023-04-29T20:24:50.345Z,25.88
2023-04-29T20:27:16.935Z,24.58
2023-04-29T20:29:43.656Z,23.65
2023-04-29T20:32:10.649Z,23.77
2023-04-29T20:34:37.819Z,24.85
2023-04-29T20:37:04.415Z,25.05
2023-04-29T20:39:31.148Z,24.80
2023-04-29T20:41:58.550Z,24.05
2023-04-29T20:44:25.543Z,24.40
2023-04-29T20:46:53.047Z,22.48
2023-04-29T20:49:19.821Z,24.75
2023-04-29T20:51:46.503Z,23.35
2023-04-29T20:54:13.829Z,25.45
2023-04-29T20:56:40.604Z,24.58
2023-04-29T20:59:07.243Z,26.92
2023-04-29T21:01:35.445Z,26.63
2023-04-29T21:04:02.917Z,26.73
2023-04-29T21:06:29.568Z,27.13
2023-04-29T21:08:56.226Z,29.45
2023-04-29T21:11:22.852Z,27.55
2023-04-29T21:13:51.450Z,28.27
2023-04-29T21:16:18.951Z,28.17
2023-04-29T21:18:45.652Z,29.15
2023-04-29T21:21:12.393Z,30.60
2023-04-29T21:23:39.245Z,28.67
2023-04-29T21:26:05.873Z,28.40
2023-04-29T21:28:32.554Z,28.20
2023-04-29T21:30:59.283Z,27.83
2023-04-29T21:33:25.893Z,27.58
2023-04-29T21:35:52.564Z,28.08
2023-04-29T21:38:19.213Z,28.27
2023-04-29T21:40:49.603Z,27.75
2023-04-29T21:43:16.706Z,25.25
2023-04-29T21:45:43.862Z,28.90
2023-04-29T21:48:17.962Z,24.92
2023-04-29T21:50:44.722Z,25.23
2023-04-29T21:53:13.225Z,23.52
2023-04-29T21:55:41.328Z,23.65
2023-04-29T21:58:07.929Z,22.95
2023-04-29T22:00:36.402Z,22.80
2023-04-29T22:03:03.570Z,23.75
2023-04-29T22:05:30.461Z,22.83
2023-04-29T22:08:00.607Z,23.65
2023-04-29T22:10:27.682Z,25.83
2023-04-29T22:12:54.319Z,24.58
2023-04-29T22:15:28.627Z,24.42
2023-04-29T22:17:56.853Z,27.33
2023-04-29T22:20:23.789Z,27.10
2023-04-29T22:22:50.468Z,28.58
2023-04-29T22:25:18.034Z,28.85
2023-04-29T22:27:44.636Z,30.02
2023-04-29T22:30:11.654Z,25.98
2023-04-29T22:32:38.313Z,25.83
2023-04-29T22:35:05.302Z,26.77
2023-04-29T22:37:31.958Z,26.83
2023-04-29T22:39:58.590Z,25.05
2023-04-29T22:42:25.221Z,26.80
2023-04-29T22:44:51.826Z,26.15
2023-04-29T22:47:18.450Z,28.80
2023-04-29T22:49:45.107Z,29.20
2023-04-29T22:52:11.734Z,27.98
2023-04-29T22:54:38.346Z,27.10
2023-04-29T22:57:05.049Z,27.17
2023-04-29T22:59:31.816Z,29.90
2023-04-29T23:01:58.433Z,28.95
2023-04-29T23:04:25.269Z,28.85
2023-04-29T23:06:52.302Z,29.42
2023-04-29T23:09:19.049Z,30.98
2023-04-29T23:11:45.710Z,33.00
2023-04-29T23:14:12.325Z,34.30
2023-04-29T23:16:38.944Z,30.85
2023-04-29T23:19:05.558Z,34.28
2023-04-29T23:21:32.478Z,34.08
2023-04-29T23:23:59.176Z,31.98
2023-04-29T23:26:25.979Z,32.75
2023-04-29T23:28:52.629Z,31.90
2023-04-29T23:31:19.325Z,30.92
2023-04-29T23:33:46.136Z,30.15
2023-04-29T23:36:12.807Z,31.63
2023-04-29T23:38:39.444Z,30.63
2023-04-29T23:41:06.090Z,32.08
2023-04-29T23:43:32.711Z,32.58
2023-04-29T23:45:59.365Z,33.08
2023-04-29T23:48:25.971Z,31.95
2023-04-29T23:50:52.580Z,30.73
2023-04-29T23:53:19.172Z,30.20
2023-04-29T23:55:45.974Z,31.02
2023-04-29T23:58:12.616Z,29.17
